Time;durP1;ratioP1;P1;durP2;ratioP2;P2;SDS_P1;SDS_P2;PMS_P1;PMS_P2;Temp;Humidity;BMP_temperature;BMP_pressure;BME280_temperature;BME280_humidity;BME280_pressure;Samples;Min_cycle;Max_cycle;Signal;HPM_P1;HPM_P2
2022/12/25 00:02:11;;;;;;;17.17;6.57;;;;;;;9.46;80.33;101357.50;5071857;28;20078;-59
2022/12/25 00:04:37;;;;;;;16.92;6.28;;;;;;;9.47;80.01;101354.50;5071470;28;20035;-60
2022/12/25 00:07:02;;;;;;;20.88;7.00;;;;;;;9.49;80.15;101357.88;5071309;28;20089;-59
2022/12/25 00:09:27;;;;;;;18.98;6.60;;;;;;;9.50;80.08;101353.19;5090315;28;20028;-59
2022/12/25 00:11:53;;;;;;;20.20;7.05;;;;;;;9.51;80.26;101350.19;5091210;28;20032;-59
2022/12/25 00:14:18;;;;;;;17.02;6.68;;;;;;;9.51;80.20;101355.72;5088217;28;20085;-59
2022/12/25 00:16:43;;;;;;;23.35;7.60;;;;;;;9.53;80.01;101355.47;5088846;28;20366;-59
2022/12/25 00:19:09;;;;;;;21.42;7.20;;;;;;;9.56;80.33;101363.34;5091933;28;20032;-59
2022/12/25 00:21:34;;;;;;;27.20;7.32;;;;;;;9.55;80.55;101361.66;5090629;28;20028;-59
2022/12/25 00:24:00;;;;;;;19.05;6.53;;;;;;;9.55;80.50;101356.09;5091868;28;20036;-59
2022/12/25 00:26:26;;;;;;;26.83;7.45;;;;;;;9.56;80.42;101355.88;5090768;28;20031;-59
2022/12/25 00:28:53;;;;;;;18.55;6.80;;;;;;;9.56;80.50;101357.78;5089924;28;20028;-59
2022/12/25 00:31:19;;;;;;;19.35;6.53;;;;;;;9.56;80.74;101355.03;5088639;28;20058;-59
2022/12/25 00:33:46;;;;;;;19.98;7.07;;;;;;;9.57;81.01;101351.16;5088220;28;20039;-60
2022/12/25 00:36:18;;;;;;;18.63;6.47;;;;;;;9.58;80.90;101350.06;5087970;28;20071;-59
2022/12/25 00:38:45;;;;;;;16.65;6.45;;;;;;;9.59;81.09;101352.63;5089903;28;20957;-59
2022/12/25 00:41:16;;;;;;;20.02;6.95;;;;;;;9.55;81.46;101348.63;5078612;28;20403;-59
2022/12/25 00:43:42;;;;;;;21.55;6.72;;;;;;;9.54;81.84;101355.25;5077855;28;20400;-59
2022/12/25 00:46:08;;;;;;;21.85;6.47;;;;;;;9.53;81.81;101352.72;5071185;28;20021;-59
2022/12/25 00:48:37;;;;;;;14.23;6.47;;;;;;;9.57;81.93;101349.22;5086396;28;20143;-59
2022/12/25 00:51:05;;;;;;;19.67;6.60;;;;;;;9.53;81.85;101348.00;5084599;28;20097;-60
2022/12/25 00:53:31;;;;;;;21.13;6.35;;;;;;;9.58;82.15;101350.91;5073020;28;20421;-59
2022/12/25 00:56:02;;;;;;;19.08;6.10;;;;;;;9.61;81.79;101357.09;5070223;28;20077;-59
2022/12/25 00:58:29;;;;;;;20.20;6.72;;;;;;;9.62;81.92;101340.22;5069914;28;20048;-59
2022/12/25 01:00:55;;;;;;;24.00;6.32;;;;;;;9.62;81.94;101339.38;5070957;28;20017;-59
2022/12/25 01:03:21;;;;;;;22.40;7.13;;;;;;;9.60;82.41;101345.16;5075342;28;20111;-59
2022/12/25 01:06:05;;;;;;;21.58;7.00;;;;;;;9.64;82.39;101338.06;5077656;28;20170;-58
2022/12/25 01:08:34;;;;;;;21.30;7.05;;;;;;;9.63;82.13;101335.50;5082380;28;20027;-59
2022/12/25 01:11:02;;;;;;;16.42;6.22;;;;;;;9.60;82.22;101331.31;5082362;28;20086;-59
2022/12/25 01:13:28;;;;;;;17.83;7.07;;;;;;;9.61;82.40;101327.44;5077913;28;20040;-59
2022/12/25 01:15:54;;;;;;;19.15;6.47;;;;;;;9.65;82.17;101322.28;5070974;28;20032;-59
2022/12/25 01:18:21;;;;;;;16.33;6.82;;;;;;;9.64;82.20;101332.53;5070243;28;20099;-59
2022/12/25 01:20:47;;;;;;;14.48;5.57;;;;;;;9.63;82.01;101333.59;5070521;28;20821;-59
2022/12/25 01:23:12;;;;;;;18.20;6.88;;;;;;;9.65;82.28;101333.38;5084906;28;20123;-60
2022/12/25 01:25:37;;;;;;;21.40;6.40;;;;;;;9.66;82.52;101335.03;5086922;28;20395;-60
2022/12/25 01:28:03;;;;;;;19.63;7.00;;;;;;;9.65;82.50;101341.69;5072128;28;20540;-60
2022/12/25 01:30:28;;;;;;;21.35;6.38;;;;;;;9.65;82.16;101344.44;5069921;28;20024;-60
2022/12/25 01:32:54;;;;;;;20.20;7.13;;;;;;;9.63;82.60;101347.47;5070381;28;20059;-59
2022/12/25 01:35:19;;;;;;;18.55;6.82;;;;;;;9.66;82.61;101349.75;5068267;28;20492;-60
2022/12/25 01:37:44;;;;;;;18.98;6.53;;;;;;;9.67;82.67;101354.22;5069651;28;20024;-60
2022/12/25 01:40:12;;;;;;;16.92;6.95;;;;;;;9.66;82.61;101360.00;5088792;28;20028;-60
2022/12/25 01:42:38;;;;;;;20.05;7.50;;;;;;;9.67;82.44;101351.47;5086646;28;20040;-60
2022/12/25 01:45:30;;;;;;;16.58;7.03;;;;;;;9.70;82.62;101350.97;5089868;28;20356;-60
2022/12/25 01:47:56;;;;;;;17.55;6.63;;;;;;;9.68;82.64;101355.91;5090719;28;20027;-60
2022/12/25 01:50:21;;;;;;;16.83;7.00;;;;;;;9.70;82.52;101369.53;5090007;28;20464;-59
2022/12/25 01:52:48;;;;;;;17.48;6.93;;;;;;;9.67;82.62;101370.00;5089636;28;20081;-60
2022/12/25 01:55:14;;;;;;;14.77;6.50;;;;;;;9.67;82.62;101368.09;5089173;28;20963;-60
2022/12/25 01:57:40;;;;;;;14.00;6.57;;;;;;;9.67;82.95;101381.06;5090143;28;20028;-60
2022/12/25 02:00:07;;;;;;;15.80;5.97;;;;;;;9.69;82.83;101381.69;5089326;28;20031;-60
2022/12/25 02:02:33;;;;;;;13.00;6.32;;;;;;;9.71;82.85;101387.88;5085829;28;20047;-60
2022/12/25 02:05:06;;;;;;;21.65;6.97;;;;;;;9.71;82.85;101382.34;5090009;28;20032;-60
2022/12/25 02:07:34;;;;;;;15.48;5.78;;;;;;;9.71;82.69;101380.41;5088957;28;20051;-60
2022/12/25 02:09:59;;;;;;;11.65;5.18;;;;;;;9.71;82.71;101385.09;5088291;28;20024;-60
2022/12/25 02:12:28;;;;;;;16.70;6.20;;;;;;;9.73;82.77;101380.16;5089644;28;20435;-60
2022/12/25 02:15:00;;;;;;;17.65;6.07;;;;;;;9.72;82.75;101378.47;5089410;28;20665;-60
2022/12/25 02:17:50;;;;;;;15.18;5.90;;;;;;;9.75;82.67;101378.84;5085388;28;20032;-60
2022/12/25 02:20:24;;;;;;;15.80;5.93;;;;;;;9.74;82.83;101384.59;5086775;28;20031;-59
2022/12/25 02:23:22;;;;;;;17.17;6.80;;;;;;;9.75;82.69;101383.56;5088947;28;20467;-59
2022/12/25 02:26:12;;;;;;;18.05;6.28;;;;;;;9.75;82.68;101394.63;5088986;28;20471;-59
2022/12/25 02:28:44;;;;;;;13.57;5.60;;;;;;;9.75;82.77;101394.63;5088754;28;20034;-59
2022/12/25 02:31:16;;;;;;;14.50;6.05;;;;;;;9.73;82.74;101386.53;5088963;28;20028;-59
2022/12/25 02:34:03;;;;;;;13.75;5.82;;;;;;;9.72;82.81;101384.00;5088459;28;20036;-59
2022/12/25 02:36:37;;;;;;;13.38;6.30;;;;;;;9.71;83.05;101377.63;5085117;28;20131;-59
2022/12/25 03:06:41;;;;;;;12.77;6.00;;;;;;;9.73;82.92;101369.91;5068384;28;20059;-59
2022/12/25 03:07:23;;;;;;;12.25;6.35;;;;;;;9.73;82.99;101325.56;5089465;28;20043;-60
2022/12/25 03:12:56;;;;;;;14.18;6.60;;;;;;;9.72;82.91;101318.31;5084038;28;20039;-60
2022/12/25 03:18:10;;;;;;;20.02;7.18;;;;;;;9.67;82.68;101293.25;5087605;28;20089;-60
2022/12/25 03:28:55;;;;;;;13.50;5.47;;;;;;;9.60;81.98;101284.19;5085431;28;20391;-60
2022/12/25 03:31:41;;;;;;;9.13;5.05;;;;;;;9.58;82.84;101284.41;5090726;28;20028;-60
2022/12/25 04:38:29;;;;;;;8.05;3.72;;;;;;;9.51;82.00;101267.06;5085771;28;20074;-60
2022/12/25 04:40:54;;;;;;;13.13;3.50;;;;;;;9.54;82.33;101280.41;5089903;28;20052;-59
2022/12/25 04:43:23;;;;;;;9.52;3.80;;;;;;;9.51;82.23;101278.13;5090097;28;20032;-59
2022/12/25 04:45:53;;;;;;;8.27;3.20;;;;;;;9.48;82.65;101275.84;5088610;28;20702;-60
2022/12/25 04:48:18;;;;;;;8.25;3.28;;;;;;;9.49;82.54;101266.44;5087926;28;20085;-60
2022/12/25 04:50:43;;;;;;;8.57;3.22;;;;;;;9.50;82.36;101262.56;5087111;28;20028;-60
2022/12/25 04:53:08;;;;;;;7.63;3.45;;;;;;;9.51;82.53;101257.88;5086281;28;20024;-60
2022/12/25 04:55:34;;;;;;;9.90;3.97;;;;;;;9.51;82.00;101261.50;5078652;28;20476;-60
2022/12/25 04:58:02;;;;;;;11.10;3.40;;;;;;;9.50;82.32;101264.50;5090067;28;20032;-60
2022/12/25 05:00:27;;;;;;;8.07;3.05;;;;;;;9.49;82.45;101260.06;5088707;28;20024;-60
2022/12/25 05:02:52;;;;;;;8.32;3.05;;;;;;;9.51;82.06;101247.66;5086243;28;20036;-60
2022/12/25 05:05:18;;;;;;;7.80;3.10;;;;;;;9.45;82.27;101243.06;5090625;28;20031;-60
2022/12/25 05:07:43;;;;;;;8.40;3.22;;;;;;;9.46;82.18;101252.19;5089910;28;20463;-60
2022/12/25 05:10:09;;;;;;;7.65;2.67;;;;;;;9.45;82.24;101256.91;5089763;28;20490;-59
2022/12/25 05:12:34;;;;;;;7.80;2.75;;;;;;;9.47;82.43;101246.44;5089983;28;20040;-60
2022/12/25 05:14:59;;;;;;;5.70;2.65;;;;;;;9.50;82.59;101243.19;5090861;28;20123;-60
2022/12/25 05:17:25;;;;;;;7.63;2.70;;;;;;;9.48;82.12;101248.13;5086135;28;20033;-60
2022/12/25 05:19:50;;;;;;;10.35;2.78;;;;;;;9.45;82.53;101253.28;5086327;28;20024;-60
2022/12/25 05:22:15;;;;;;;5.93;2.90;;;;;;;9.47;82.35;101251.13;5088873;28;20042;-60
2022/12/25 05:24:40;;;;;;;8.90;2.85;;;;;;;9.51;82.18;101244.00;5088165;28;20039;-60
2022/12/25 05:27:06;;;;;;;9.18;3.40;;;;;;;9.49;82.21;101235.94;5090249;28;20120;-60
2022/12/25 05:29:31;;;;;;;6.82;2.78;;;;;;;9.51;82.22;101227.38;5089617;28;20552;-60
2022/12/25 05:31:56;;;;;;;8.40;2.60;;;;;;;9.50;82.24;101215.47;5089320;28;20028;-60
2022/12/25 05:34:22;;;;;;;9.13;3.25;;;;;;;9.52;82.32;101207.78;5090271;28;20039;-60
2022/12/25 05:36:47;;;;;;;4.57;2.80;;;;;;;9.51;82.28;101200.56;5083493;28;20061;-60
2022/12/25 05:39:12;;;;;;;4.55;2.60;;;;;;;9.51;82.09;101208.88;5089959;28;20024;-60
2022/12/25 05:41:41;;;;;;;9.50;3.28;;;;;;;9.54;82.25;101216.69;5090139;28;20024;-60
2022/12/25 05:44:06;;;;;;;11.07;3.25;;;;;;;9.55;82.04;101214.78;5088673;28;20031;-60
2022/12/25 05:46:31;;;;;;;5.90;2.42;;;;;;;9.53;82.06;101217.78;5089761;28;20028;-60
2022/12/25 05:48:57;;;;;;;6.00;3.08;;;;;;;9.54;82.28;101210.28;5090466;28;20494;-60
2022/12/25 05:51:22;;;;;;;8.50;2.90;;;;;;;9.56;82.18;101219.22;5088065;28;20164;-60
2022/12/25 05:53:47;;;;;;;7.13;2.70;;;;;;;9.57;81.93;101220.91;5084543;28;20518;-60
2022/12/25 05:56:12;;;;;;;5.78;2.55;;;;;;;9.58;82.24;101223.44;5079604;28;20082;-60
2022/12/25 05:58:41;;;;;;;5.50;2.97;;;;;;;9.61;82.03;101215.75;5068402;28;20020;-59
2022/12/25 06:01:12;;;;;;;8.48;3.40;;;;;;;9.61;82.28;101211.03;5070385;28;20032;-60
2022/12/25 06:03:37;;;;;;;8.43;2.45;;;;;;;9.59;81.98;101204.91;5069218;28;20400;-60
2022/12/25 06:06:03;;;;;;;7.40;2.92;;;;;;;9.58;82.06;101195.72;5079123;28;20060;-60
2022/12/25 06:08:28;;;;;;;6.15;2.63;;;;;;;9.59;81.87;101205.75;5089501;28;20108;-60
2022/12/25 06:10:54;;;;;;;7.68;2.72;;;;;;;9.60;82.37;101201.03;5089668;28;20398;-60
2022/12/25 06:13:19;;;;;;;8.43;2.85;;;;;;;9.63;81.74;101208.88;5088721;28;20031;-60
2022/12/25 06:15:44;;;;;;;6.60;2.38;;;;;;;9.64;81.97;101198.66;5088402;28;20770;-60
2022/12/25 06:18:09;;;;;;;5.85;2.90;;;;;;;9.66;82.10;101196.47;5080022;28;20090;-60
2022/12/25 06:20:35;;;;;;;5.40;2.60;;;;;;;9.66;82.03;101197.31;5088691;28;20032;-60
2022/12/25 06:23:00;;;;;;;7.15;2.95;;;;;;;9.65;81.81;101175.38;5089231;28;20036;-60
2022/12/25 06:25:26;;;;;;;7.32;2.78;;;;;;;9.67;81.88;101171.28;5089450;28;20040;-60
2022/12/25 06:27:51;;;;;;;6.97;2.30;;;;;;;9.67;81.67;101170.41;5088251;28;20028;-59
2022/12/25 06:30:17;;;;;;;6.25;2.70;;;;;;;9.67;81.85;101178.75;5089317;28;20092;-60
2022/12/25 06:32:42;;;;;;;6.78;2.75;;;;;;;9.68;81.68;101181.28;5087755;28;20032;-60
2022/12/25 06:35:10;;;;;;;7.13;3.15;;;;;;;9.68;81.87;101183.22;5084549;28;20036;-60
2022/12/25 06:37:35;;;;;;;9.68;2.47;;;;;;;9.66;81.90;101164.03;5088562;28;20641;-59
2022/12/25 06:40:01;;;;;;;8.40;2.42;;;;;;;9.67;81.90;101156.56;5088776;28;20127;-60
2022/12/25 06:42:26;;;;;;;6.75;2.72;;;;;;;9.69;82.09;101157.19;5088555;28;20040;-60
2022/12/25 06:44:52;;;;;;;7.78;2.83;;;;;;;9.67;81.87;101146.34;5089281;28;20142;-60
2022/12/25 06:47:17;;;;;;;9.65;2.90;;;;;;;9.68;81.75;101142.50;5085799;28;20078;-59
2022/12/25 06:49:42;;;;;;;7.47;2.65;;;;;;;9.66;81.65;101147.41;5084901;28;20055;-60
2022/12/25 06:52:10;;;;;;;8.07;2.65;;;;;;;9.67;81.95;101135.25;5088812;28;20036;-60
2022/12/25 06:54:36;;;;;;;8.13;2.70;;;;;;;9.69;81.68;101118.38;5087843;28;20020;-60
2022/12/25 06:57:01;;;;;;;7.95;2.83;;;;;;;9.68;81.74;101109.22;5088438;28;20113;-60
2022/12/25 06:59:29;;;;;;;4.13;2.22;;;;;;;9.71;81.91;101107.91;5088798;28;20417;-60
2022/12/25 07:02:00;;;;;;;4.88;2.58;;;;;;;9.68;81.94;101105.63;5086729;28;20040;-60
2022/12/25 07:04:34;;;;;;;9.48;2.85;;;;;;;9.67;81.98;101110.31;5088046;28;20031;-60
2022/12/25 07:07:00;;;;;;;7.75;2.75;;;;;;;9.66;81.79;101108.59;5083785;28;20016;-60
2022/12/25 07:09:25;;;;;;;6.57;2.58;;;;;;;9.67;81.84;101106.69;5088363;28;20038;-60
2022/12/25 07:11:51;;;;;;;7.68;2.67;;;;;;;9.64;81.73;101110.78;5073908;28;20028;-60
2022/12/25 07:14:18;;;;;;;8.70;2.92;;;;;;;9.67;81.89;101123.31;5082456;28;20060;-59
2022/12/25 07:16:44;;;;;;;7.35;2.80;;;;;;;9.68;81.59;101127.78;5085820;28;20040;-60
2022/12/25 07:19:09;;;;;;;6.00;2.50;;;;;;;9.69;81.96;101124.75;5088452;28;20039;-60
2022/12/25 07:21:34;;;;;;;7.22;2.90;;;;;;;9.73;81.67;101133.44;5087952;28;20063;-60
2022/12/25 07:24:00;;;;;;;4.10;2.17;;;;;;;9.71;81.70;101135.63;5087816;28;20063;-60
2022/12/25 07:26:25;;;;;;;6.55;2.42;;;;;;;9.73;81.65;101145.38;5089220;28;20115;-60
2022/12/25 07:28:50;;;;;;;7.03;2.30;;;;;;;9.73;81.64;101152.84;5088835;28;20098;-60
2022/12/25 07:31:16;;;;;;;6.63;2.38;;;;;;;9.75;81.70;101161.78;5083979;28;20111;-60
2022/12/25 07:33:43;;;;;;;6.00;2.78;;;;;;;9.73;81.70;101164.78;5082725;28;20113;-60
2022/12/25 07:36:09;;;;;;;9.82;2.88;;;;;;;9.75;81.44;101159.84;5083508;28;20449;-60
2022/12/25 07:38:35;;;;;;;5.32;2.30;;;;;;;9.74;81.56;101151.75;5087800;28;20050;-60
2022/12/25 07:41:00;;;;;;;5.25;2.30;;;;;;;9.73;81.41;101136.22;5085458;28;20493;-60
2022/12/25 07:43:26;;;;;;;8.43;2.95;;;;;;;9.73;81.82;101116.81;5087745;28;20034;-60
2022/12/25 07:45:59;;;;;;;6.88;2.00;;;;;;;9.73;81.79;101109.34;5088750;28;20127;-60
2022/12/25 07:48:28;;;;;;;6.68;2.40;;;;;;;9.74;81.72;101115.72;5088011;28;20116;-60
2022/12/25 07:51:02;;;;;;;6.95;2.40;;;;;;;9.76;81.59;101127.44;5088076;28;20111;-60
2022/12/25 07:53:27;;;;;;;5.28;2.67;;;;;;;9.76;81.46;101135.75;5088160;28;20084;-60
2022/12/25 07:56:01;;;;;;;5.68;2.20;;;;;;;9.76;81.53;101146.81;5083420;28;20036;-60
2022/12/25 07:58:27;;;;;;;5.88;2.50;;;;;;;9.74;81.47;101151.75;5067309;28;20041;-60
2022/12/25 08:00:53;;;;;;;4.18;2.58;;;;;;;9.75;81.53;101170.94;5072371;28;20051;-60
2022/12/25 08:03:21;;;;;;;7.43;2.53;;;;;;;9.75;81.47;101178.41;5088178;28;20075;-60
2022/12/25 08:05:47;;;;;;;5.53;2.70;;;;;;;9.76;81.53;101171.78;5086353;28;20039;-60
2022/12/25 08:08:12;;;;;;;6.50;2.88;;;;;;;9.76;81.16;101169.00;5090202;28;20028;-60
2022/12/25 08:10:38;;;;;;;5.90;2.40;;;;;;;9.74;80.98;101172.00;5090591;28;20072;-60
2022/12/25 08:13:03;;;;;;;5.10;2.80;;;;;;;9.76;81.17;101183.72;5091706;28;20380;-60
2022/12/25 08:15:31;;;;;;;7.80;2.50;;;;;;;9.75;81.40;101189.50;5092205;28;20494;-60
2022/12/25 08:17:57;;;;;;;6.43;2.70;;;;;;;9.75;81.38;101211.69;5086234;28;20039;-59
2022/12/25 08:20:22;;;;;;;4.93;2.58;;;;;;;9.78;81.23;101217.56;5072506;28;20111;-60
2022/12/25 08:22:47;;;;;;;5.03;2.78;;;;;;;9.78;81.22;101217.56;5073812;28;20124;-60
2022/12/25 08:25:14;;;;;;;7.25;2.80;;;;;;;9.77;81.13;101192.88;5088894;28;20407;-60
2022/12/25 08:27:42;;;;;;;6.40;2.63;;;;;;;9.77;81.22;101179.00;5074666;28;20034;-60
2022/12/25 08:30:08;;;;;;;6.32;3.28;;;;;;;9.75;81.22;101183.97;5091447;28;20028;-60
2022/12/25 08:32:34;;;;;;;6.80;3.22;;;;;;;9.78;81.09;101189.00;5085112;28;20101;-60
2022/12/25 08:35:02;;;;;;;8.55;3.35;;;;;;;9.79;81.27;101193.47;5075366;28;20483;-59
2022/12/25 08:37:31;;;;;;;7.10;2.65;;;;;;;9.76;81.19;101185.63;5079880;28;20024;-59
2022/12/25 08:39:56;;;;;;;7.72;2.90;;;;;;;9.76;81.12;101191.19;5090204;28;20349;-59
2022/12/25 08:42:21;;;;;;;5.50;2.90;;;;;;;9.75;81.16;101195.88;5085517;28;20043;-59
2022/12/25 08:44:53;;;;;;;5.07;2.80;;;;;;;9.76;81.09;101205.03;5089691;28;20047;-59
2022/12/25 08:47:18;;;;;;;5.13;3.30;;;;;;;9.76;81.02;101208.66;5087116;28;20479;-59
2022/12/25 08:49:44;;;;;;;6.78;3.15;;;;;;;9.78;81.20;101200.09;5091288;28;20073;-60
2022/12/25 08:52:09;;;;;;;6.85;3.00;;;;;;;9.76;80.99;101199.50;5077137;28;20074;-60
2022/12/25 08:54:35;;;;;;;6.03;3.00;;;;;;;9.77;81.20;101192.88;5088667;28;20501;-60
2022/12/25 08:57:03;;;;;;;5.90;3.03;;;;;;;9.73;81.31;101186.94;5090337;28;20037;-60
2022/12/25 08:59:29;;;;;;;10.52;3.08;;;;;;;9.75;81.50;101175.66;5089908;28;20075;-60
2022/12/25 09:01:54;;;;;;;5.32;3.05;;;;;;;9.74;80.99;101182.25;5088138;28;20060;-60
2022/12/25 09:04:20;;;;;;;7.00;3.50;;;;;;;9.75;81.47;101181.19;5091344;28;20032;-60
2022/12/25 09:06:45;;;;;;;9.23;3.70;;;;;;;9.74;81.46;101165.63;5087384;28;20546;-60
2022/12/25 09:09:13;;;;;;;7.53;3.70;;;;;;;9.73;81.46;101169.47;5086638;28;20044;-60
2022/12/25 09:11:39;;;;;;;8.30;4.00;;;;;;;9.74;81.77;101160.91;5087438;28;20098;-60
2022/12/25 09:14:04;;;;;;;14.20;4.28;;;;;;;9.75;81.41;101162.63;5070915;28;20037;-60
2022/12/25 09:16:29;;;;;;;5.45;3.35;;;;;;;9.73;81.52;101175.03;5068960;28;20458;-60
2022/12/25 09:18:57;;;;;;;9.38;4.10;;;;;;;9.72;81.77;101179.72;5090287;28;20047;-60
2022/12/25 09:21:22;;;;;;;10.60;4.35;;;;;;;9.69;81.99;101191.28;5089708;28;20028;-59
2022/12/25 09:23:48;;;;;;;7.70;3.70;;;;;;;9.71;82.66;101194.69;5089286;28;20441;-60
2022/12/25 09:26:15;;;;;;;8.18;4.25;;;;;;;9.71;82.27;101193.84;5075226;28;20116;-60
2022/12/25 09:28:44;;;;;;;7.57;4.60;;;;;;;9.72;82.27;101176.97;5084101;28;20093;-60
2022/12/25 09:31:09;;;;;;;7.65;3.92;;;;;;;9.73;82.09;101177.78;5090578;28;20032;-61
2022/12/25 09:33:35;;;;;;;6.20;3.90;;;;;;;9.73;82.34;101175.88;5088015;28;20510;-61
2022/12/25 09:36:06;;;;;;;6.88;3.90;;;;;;;9.72;82.07;101170.56;5089335;28;20443;-61
2022/12/25 09:38:33;;;;;;;8.95;3.50;;;;;;;9.72;82.32;101156.72;5089187;28;20036;-60
2022/12/25 09:41:07;;;;;;;7.75;3.97;;;;;;;9.73;82.47;101139.00;5084090;28;20039;-61
2022/12/25 09:43:40;;;;;;;9.20;4.38;;;;;;;9.74;82.58;101154.53;5087388;28;20039;-61
2022/12/25 09:46:14;;;;;;;8.23;3.80;;;;;;;9.74;82.30;101160.06;5086811;28;20024;-61
2022/12/25 09:48:47;;;;;;;8.55;4.20;;;;;;;9.73;82.45;101158.38;5083210;28;20035;-60
2022/12/25 09:51:15;;;;;;;7.82;5.15;;;;;;;9.73;82.52;101158.38;5087577;28;20020;-60
2022/12/25 09:54:03;;;;;;;10.15;4.20;;;;;;;9.78;82.56;101153.81;5089422;28;20574;-59
2022/12/25 09:56:31;;;;;;;10.18;4.20;;;;;;;9.75;82.58;101134.06;5088981;28;20020;-69
2022/12/25 09:58:57;;;;;;;8.25;4.10;;;;;;;9.76;82.34;101141.28;5082379;28;20051;-61
2022/12/25 10:01:37;;;;;;;7.68;3.90;;;;;;;9.77;82.83;101142.97;5084150;28;20036;-61
2022/12/25 10:04:09;;;;;;;8.07;4.63;;;;;;;9.75;83.12;101139.59;5087212;28;20066;-59
2022/12/25 10:06:58;;;;;;;7.38;4.63;;;;;;;9.79;82.66;101121.41;5077022;28;20035;-60
2022/12/25 10:09:51;;;;;;;14.23;10.50;;;;;;;9.79;82.90;101125.03;5089026;28;20020;-61
2022/12/25 10:12:33;;;;;;;17.85;16.10;;;;;;;9.78;82.85;101120.53;5087473;28;20035;-59
2022/12/25 10:15:10;;;;;;;26.75;24.20;;;;;;;9.79;82.73;101119.47;5088979;28;20039;-61
2022/12/25 10:17:59;;;;;;;22.98;20.77;;;;;;;9.79;82.69;101110.31;5088130;28;20036;-60
2022/12/25 10:20:49;;;;;;;16.00;14.02;;;;;;;9.82;82.91;101124.53;5082536;28;20046;-60
2022/12/25 10:23:21;;;;;;;12.23;8.70;;;;;;;9.78;83.05;101116.94;5085506;28;20063;-60
2022/12/25 10:25:47;;;;;;;11.43;6.57;;;;;;;9.80;83.27;101112.00;5087043;28;20024;-59
2022/12/25 10:28:18;;;;;;;9.60;6.50;;;;;;;9.79;83.10;101113.09;5087312;28;20451;-59
2022/12/25 10:30:44;;;;;;;9.95;5.60;;;;;;;9.77;83.17;101110.53;5081623;28;20130;-59
2022/12/25 10:33:12;;;;;;;9.45;6.10;;;;;;;9.78;83.26;101105.84;5079477;28;20484;-58
2022/12/25 10:35:38;;;;;;;10.98;5.47;;;;;;;9.80;83.01;101121.16;5086456;28;20479;-57
2022/12/25 10:38:17;;;;;;;10.52;5.60;;;;;;;9.80;83.24;101098.13;5072211;28;20063;-58
2022/12/25 10:41:01;;;;;;;12.63;7.72;;;;;;;9.83;83.36;101103.19;5082194;28;20425;-61
2022/12/25 10:43:42;;;;;;;27.15;24.75;;;;;;;9.81;83.40;101106.19;5085516;28;20064;-60
2022/12/25 10:46:13;;;;;;;20.73;18.92;;;;;;;9.78;83.27;101109.44;5075582;28;20437;-58
2022/12/25 10:48:51;;;;;;;19.05;16.17;;;;;;;9.80;83.49;101096.19;5084338;28;20043;-58
2022/12/25 10:51:37;;;;;;;53.25;29.50;;;;;;;9.80;83.52;101090.66;5085060;28;20116;-59
2022/12/25 10:54:23;;;;;;;24.10;16.40;;;;;;;9.82;83.83;101076.53;5084794;28;20139;-60
2022/12/25 10:57:00;;;;;;;17.98;13.00;;;;;;;9.82;83.53;101062.69;5079659;28;20066;-60
2022/12/25 10:59:33;;;;;;;13.93;11.50;;;;;;;9.82;83.63;101048.81;5084187;28;20082;-61
2022/12/25 11:02:50;;;;;;;14.93;9.75;;;;;;;9.83;83.93;101053.31;5085022;28;20042;-66
2022/12/25 11:05:25;;;;;;;14.13;10.40;;;;;;;9.83;83.72;101053.31;5021049;28;20502;-59
2022/12/25 11:07:53;;;;;;;12.77;8.93;;;;;;;9.85;84.16;101056.66;5081342;28;20075;-58
2022/12/25 11:10:27;;;;;;;11.80;8.82;;;;;;;9.85;83.92;101067.75;5081576;28;20479;-60
2022/12/25 11:12:53;;;;;;;11.18;7.55;;;;;;;9.82;84.02;101063.56;5080556;28;20032;-59
2022/12/25 11:15:37;;;;;;;9.02;7.28;;;;;;;9.87;84.03;101053.66;5082356;28;20082;-59
2022/12/25 11:18:18;;;;;;;8.27;7.35;;;;;;;9.84;83.68;101041.97;5079069;28;20031;-60
2022/12/25 11:20:52;;;;;;;11.13;7.20;;;;;;;9.87;84.14;101039.78;5086895;28;20035;-60
2022/12/25 11:23:21;;;;;;;10.10;6.15;;;;;;;9.87;84.08;101037.03;5088002;28;20032;-60
2022/12/25 11:25:58;;;;;;;9.05;5.50;;;;;;;9.86;84.43;101030.59;5087647;28;20024;-59
2022/12/25 11:28:25;;;;;;;9.52;5.60;;;;;;;9.87;84.36;101015.69;5078041;28;20510;-60
2022/12/25 11:31:02;;;;;;;11.93;6.40;;;;;;;9.89;84.62;101001.56;5084435;28;20038;-61
2022/12/25 11:33:36;;;;;;;8.77;5.22;;;;;;;9.89;84.46;101004.34;5085184;28;20040;-60
2022/12/25 11:36:11;;;;;;;10.25;6.15;;;;;;;9.86;84.41;101008.44;5078532;28;20048;-60
2022/12/25 11:38:37;;;;;;;14.65;5.55;;;;;;;9.85;84.47;100995.66;5085571;28;20494;-61
2022/12/25 11:41:03;;;;;;;7.10;5.63;;;;;;;9.87;84.58;100999.06;5084468;28;20032;-60
2022/12/25 11:43:42;;;;;;;7.45;5.43;;;;;;;9.87;84.65;100992.66;5090318;28;20369;-61
2022/12/25 11:46:16;;;;;;;11.70;8.82;;;;;;;9.85;84.46;100984.56;5090016;28;20068;-60
2022/12/25 11:48:55;;;;;;;8.63;7.32;;;;;;;9.87;84.32;100987.13;5074356;28;20027;-60
2022/12/25 11:51:25;;;;;;;8.13;5.80;;;;;;;9.86;84.58;100989.03;5085048;28;20035;-60
2022/12/25 11:53:54;;;;;;;9.68;5.95;;;;;;;9.87;84.68;100982.41;5089616;28;20021;-60
2022/12/25 11:56:23;;;;;;;9.00;5.20;;;;;;;9.87;84.39;100971.31;5088388;28;20036;-58
2022/12/25 11:58:52;;;;;;;8.38;6.07;;;;;;;9.87;84.33;100963.00;5085764;28;20055;-59
2022/12/25 12:01:30;;;;;;;7.85;5.65;;;;;;;9.89;84.37;100968.28;5088927;28;20024;-59
2022/12/25 12:04:00;;;;;;;7.70;5.60;;;;;;;9.86;84.37;100964.06;5082251;28;20032;-60
2022/12/25 12:06:39;;;;;;;9.07;6.30;;;;;;;9.89;84.61;100973.84;5083292;28;20067;-59
2022/12/25 12:09:20;;;;;;;6.18;5.55;;;;;;;9.87;84.39;100971.31;5084726;28;20127;-58
2022/12/25 12:11:57;;;;;;;8.52;6.10;;;;;;;9.84;84.51;100975.41;5088779;28;20562;-60
2022/12/25 12:14:44;;;;;;;7.70;5.90;;;;;;;9.84;84.66;100977.34;5089126;28;20024;-60
2022/12/25 12:17:18;;;;;;;9.20;6.68;;;;;;;9.82;84.87;100977.59;5092151;28;20035;-61
2022/12/25 12:19:43;;;;;;;9.07;7.63;;;;;;;9.81;84.46;100973.13;5087422;28;20085;-60
2022/12/25 12:22:20;;;;;;;13.52;9.95;;;;;;;9.81;85.03;100967.59;5085516;28;20031;-60
2022/12/25 12:24:53;;;;;;;23.25;17.45;;;;;;;9.85;84.65;100962.41;5088289;28;20028;-61
2022/12/25 12:27:26;;;;;;;30.30;21.52;;;;;;;9.82;84.89;100962.88;5083250;28;20042;-60
2022/12/25 12:29:57;;;;;;;32.50;22.58;;;;;;;9.85;84.92;100962.41;5089900;28;20110;-60
2022/12/25 12:32:28;;;;;;;27.77;20.45;;;;;;;9.85;84.97;100951.31;5086537;28;20028;-59
2022/12/25 12:34:55;;;;;;;15.40;12.55;;;;;;;9.85;84.88;100943.00;5088277;28;20189;-61
2022/12/25 12:37:34;;;;;;;11.55;10.35;;;;;;;9.87;85.23;100932.50;5084401;28;20024;-59
2022/12/25 12:40:00;;;;;;;11.57;8.82;;;;;;;9.86;84.67;100925.25;5078724;28;20073;-59
2022/12/25 12:42:29;;;;;;;10.05;8.75;;;;;;;9.87;84.97;100923.34;5087584;28;20035;-59
2022/12/25 12:47:40;;;;;;;11.25;9.73;;;;;;;9.88;85.38;100933.34;5416019;22;21149;-62
2022/12/25 12:50:27;;;;;;;12.32;10.63;;;;;;;9.88;84.90;100931.41;5040122;28;20055;-68
2022/12/25 12:52:54;;;;;;;12.55;11.07;;;;;;;9.88;85.10;100934.19;5046219;28;20102;-66
2022/12/25 12:55:32;;;;;;;11.75;10.55;;;;;;;9.90;85.09;100934.75;5048090;28;20098;-69
2022/12/25 13:01:19;;;;;;;13.23;10.80;;;;;;;9.90;84.99;100926.44;5048072;28;20059;-72
2022/12/25 13:04:12;;;;;;;12.35;11.02;;;;;;;9.93;85.06;100922.34;5042764;28;20041;-70
2022/12/25 13:13:27;;;;;;;13.13;11.15;;;;;;;9.90;85.17;100904.28;5047825;28;20047;-64
2022/12/25 13:15:52;;;;;;;12.18;10.90;;;;;;;9.90;85.32;100898.72;5046429;28;20040;-69
2022/12/25 13:18:19;;;;;;;13.35;11.10;;;;;;;9.89;85.20;100885.97;5047020;28;20037;-69
2022/12/25 13:31:39;;;;;;;38.70;25.27;;;;;;;9.98;85.45;100869.75;5043294;28;20039;-69
2022/12/25 13:34:26;;;;;;;51.63;32.60;;;;;;;9.95;85.76;100860.03;5045310;28;20049;-69
2022/12/25 13:36:55;;;;;;;57.38;36.15;;;;;;;9.96;85.72;100858.94;5042358;28;20024;-68
2022/12/25 13:39:23;;;;;;;71.68;44.42;;;;;;;9.95;85.88;100862.78;5046988;28;20041;-69
2022/12/25 13:48:59;;;;;;;24.85;20.13;;;;;;;10.00;85.88;100864.81;5024963;28;20048;-69
2022/12/25 13:51:25;;;;;;;20.85;17.73;;;;;;;9.96;85.71;100858.94;5001518;28;20068;-67
2022/12/25 13:54:02;;;;;;;15.77;14.23;;;;;;;9.96;85.99;100847.00;5003775;28;20045;-70
2022/12/25 13:56:27;;;;;;;15.77;14.02;;;;;;;9.95;85.94;100848.94;4997684;28;20030;-68